Terminal Aerodrome Forecast
Issued by NWS Sterling, VA

Current Version | Previous Version | Graphics & Text | Print | Product List | Glossary Off
Versions: 1 2 3 4 5 6 7 8 9 10 11 12 13 14 15 16 17 18 19 20 21 22

000
FTUS41 KLWX 041744
TAFIAD
TAF
KIAD 041744Z 0418/0524 18011G19KT P6SM FEW060 SCT250
     FM050000 19006KT P6SM SCT050
     FM051200 22004KT P6SM SCT250
     FM051800 27007KT P6SM VCSH SCT040 BKN090=

USA.gov is the U.S. government's official web portal to all federal, state and local government web resources and services.